sensor_id;sensor_type;location;lat;lon;timestamp;pressure;altitude;pressure_sealevel;temperature;humidity
23261;BME280;11799;47.740;-3.390;2024-01-30T00:01:37;102704.34;;;10.26;100.00
23261;BME280;11799;47.740;-3.390;2024-01-30T00:04:03;102706.34;;;10.21;100.00
23261;BME280;11799;47.740;-3.390;2024-01-30T00:06:28;102709.94;;;10.20;100.00
23261;BME280;11799;47.740;-3.390;2024-01-30T00:08:54;102705.81;;;10.13;100.00
23261;BME280;11799;47.740;-3.390;2024-01-30T00:11:19;102714.88;;;10.07;100.00
23261;BME280;11799;47.740;-3.390;2024-01-30T00:13:46;102724.38;;;10.11;100.00
23261;BME280;11799;47.740;-3.390;2024-01-30T00:16:21;102727.28;;;10.05;100.00
23261;BME280;11799;47.740;-3.390;2024-01-30T00:18:47;102718.84;;;9.97;100.00
23261;BME280;11799;47.740;-3.390;2024-01-30T00:21:13;102715.84;;;9.86;100.00
23261;BME280;11799;47.740;-3.390;2024-01-30T00:23:41;102723.41;;;9.93;100.00
23261;BME280;11799;47.740;-3.390;2024-01-30T00:26:07;102718.19;;;9.92;100.00
23261;BME280;11799;47.740;-3.390;2024-01-30T00:28:32;102718.06;;;9.95;100.00
23261;BME280;11799;47.740;-3.390;2024-01-30T00:30:58;102717.34;;;9.91;100.00
23261;BME280;11799;47.740;-3.390;2024-01-30T00:33:23;102718.53;;;9.84;100.00
23261;BME280;11799;47.740;-3.390;2024-01-30T00:35:49;102720.06;;;9.90;100.00
23261;BME280;11799;47.740;-3.390;2024-01-30T00:38:15;102727.84;;;9.93;100.00
23261;BME280;11799;47.740;-3.390;2024-01-30T00:40:40;102727.03;;;9.91;100.00
23261;BME280;11799;47.740;-3.390;2024-01-30T00:43:06;102727.91;;;9.91;100.00
23261;BME280;11799;47.740;-3.390;2024-01-30T00:45:31;102717.34;;;9.91;100.00
23261;BME280;11799;47.740;-3.390;2024-01-30T00:47:57;102729.75;;;9.89;100.00
23261;BME280;11799;47.740;-3.390;2024-01-30T00:50:22;102724.34;;;9.92;100.00
23261;BME280;11799;47.740;-3.390;2024-01-30T00:52:48;102719.97;;;9.91;100.00
23261;BME280;11799;47.740;-3.390;2024-01-30T00:55:14;102728.88;;;9.89;100.00
23261;BME280;11799;47.740;-3.390;2024-01-30T00:57:40;102729.63;;;9.92;100.00
23261;BME280;11799;47.740;-3.390;2024-01-30T01:00:06;102719.84;;;9.94;100.00
23261;BME280;11799;47.740;-3.390;2024-01-30T01:02:36;102716.56;;;9.89;100.00
23261;BME280;11799;47.740;-3.390;2024-01-30T01:05:03;102715.75;;;9.87;100.00
23261;BME280;11799;47.740;-3.390;2024-01-30T01:07:28;102727.97;;;9.90;100.00
23261;BME280;11799;47.740;-3.390;2024-01-30T01:09:54;102734.31;;;9.86;100.00
23261;BME280;11799;47.740;-3.390;2024-01-30T01:12:19;102740.50;;;9.85;100.00
23261;BME280;11799;47.740;-3.390;2024-01-30T01:14:45;102750.38;;;9.81;100.00
23261;BME280;11799;47.740;-3.390;2024-01-30T01:17:10;102739.09;;;9.78;100.00
23261;BME280;11799;47.740;-3.390;2024-01-30T01:19:36;102739.22;;;9.75;100.00
23261;BME280;11799;47.740;-3.390;2024-01-30T01:22:02;102736.72;;;9.72;100.00
23261;BME280;11799;47.740;-3.390;2024-01-30T01:24:30;102736.84;;;9.69;100.00
23261;BME280;11799;47.740;-3.390;2024-01-30T01:26:56;102744.78;;;9.69;100.00
23261;BME280;11799;47.740;-3.390;2024-01-30T01:29:22;102744.78;;;9.69;100.00
23261;BME280;11799;47.740;-3.390;2024-01-30T01:31:57;102747.47;;;9.67;100.00
23261;BME280;11799;47.740;-3.390;2024-01-30T01:34:23;102731.19;;;9.57;100.00
23261;BME280;11799;47.740;-3.390;2024-01-30T01:36:49;102738.09;;;9.60;100.00
23261;BME280;11799;47.740;-3.390;2024-01-30T01:39:15;102759.34;;;9.57;100.00
23261;BME280;11799;47.740;-3.390;2024-01-30T01:41:41;102751.69;;;9.51;100.00
23261;BME280;11799;47.740;-3.390;2024-01-30T01:44:07;102761.56;;;9.46;100.00
23261;BME280;11799;47.740;-3.390;2024-01-30T01:46:34;102757.28;;;9.43;100.00
23261;BME280;11799;47.740;-3.390;2024-01-30T01:49:04;102768.81;;;9.41;100.00
23261;BME280;11799;47.740;-3.390;2024-01-30T01:51:33;102765.50;;;9.36;100.00
23261;BME280;11799;47.740;-3.390;2024-01-30T01:54:02;102775.22;;;9.35;100.00
23261;BME280;11799;47.740;-3.390;2024-01-30T01:56:29;102767.28;;;9.35;100.00
23261;BME280;11799;47.740;-3.390;2024-01-30T01:58:55;102763.13;;;9.30;100.00
23261;BME280;11799;47.740;-3.390;2024-01-30T02:01:21;102772.94;;;9.26;100.00
23261;BME280;11799;47.740;-3.390;2024-01-30T02:03:47;102774.03;;;9.22;100.00
23261;BME280;11799;47.740;-3.390;2024-01-30T02:06:13;102781.13;;;9.20;100.00
23261;BME280;11799;47.740;-3.390;2024-01-30T02:08:40;102775.13;;;9.16;100.00
23261;BME280;11799;47.740;-3.390;2024-01-30T02:11:05;102773.53;;;9.12;100.00
23261;BME280;11799;47.740;-3.390;2024-01-30T02:13:31;102772.69;;;9.12;100.00
23261;BME280;11799;47.740;-3.390;2024-01-30T02:15:56;102771.81;;;9.11;100.00
23261;BME280;11799;47.740;-3.390;2024-01-30T02:18:22;102775.50;;;9.07;100.00
23261;BME280;11799;47.740;-3.390;2024-01-30T02:20:48;102772.06;;;9.05;100.00
23261;BME280;11799;47.740;-3.390;2024-01-30T02:23:15;102763.44;;;9.02;100.00
23261;BME280;11799;47.740;-3.390;2024-01-30T02:25:42;102762.69;;;8.98;100.00
23261;BME280;11799;47.740;-3.390;2024-01-30T02:28:13;102771.50;;;8.97;100.00
23261;BME280;11799;47.740;-3.390;2024-01-30T02:30:39;102782.97;;;8.96;100.00
23261;BME280;11799;47.740;-3.390;2024-01-30T02:33:05;102779.59;;;8.92;100.00
23261;BME280;11799;47.740;-3.390;2024-01-30T02:35:30;102780.53;;;8.91;100.00
23261;BME280;11799;47.740;-3.390;2024-01-30T02:37:56;102770.97;;;8.89;100.00
23261;BME280;11799;47.740;-3.390;2024-01-30T02:40:21;102777.09;;;8.89;100.00
23261;BME280;11799;47.740;-3.390;2024-01-30T02:42:47;102781.50;;;8.89;100.00
23261;BME280;11799;47.740;-3.390;2024-01-30T02:45:13;102784.06;;;8.90;100.00
23261;BME280;11799;47.740;-3.390;2024-01-30T02:47:39;102779.03;;;8.84;100.00
23261;BME280;11799;47.740;-3.390;2024-01-30T02:50:06;102796.50;;;8.87;100.00
23261;BME280;11799;47.740;-3.390;2024-01-30T02:52:32;102806.25;;;8.85;100.00
23261;BME280;11799;47.740;-3.390;2024-01-30T02:54:58;102817.75;;;8.82;100.00
23261;BME280;11799;47.740;-3.390;2024-01-30T02:57:23;102821.38;;;8.80;100.00
23261;BME280;11799;47.740;-3.390;2024-01-30T02:59:49;102824.97;;;8.77;100.00
23261;BME280;11799;47.740;-3.390;2024-01-30T03:02:14;102817.31;;;8.71;100.00
23261;BME280;11799;47.740;-3.390;2024-01-30T03:04:43;102823.56;;;8.69;100.00
23261;BME280;11799;47.740;-3.390;2024-01-30T03:07:08;102827.19;;;8.66;100.00
23261;BME280;11799;47.740;-3.390;2024-01-30T03:09:34;102815.88;;;8.64;100.00
23261;BME280;11799;47.740;-3.390;2024-01-30T03:12:00;102816.78;;;8.63;100.00
23261;BME280;11799;47.740;-3.390;2024-01-30T03:14:26;102821.19;;;8.63;100.00
23261;BME280;11799;47.740;-3.390;2024-01-30T03:16:51;102831.72;;;8.63;100.00
23261;BME280;11799;47.740;-3.390;2024-01-30T03:19:17;102827.44;;;8.60;100.00
23261;BME280;11799;47.740;-3.390;2024-01-30T03:21:44;102828.56;;;8.53;100.00
23261;BME280;11799;47.740;-3.390;2024-01-30T03:24:09;102830.28;;;8.54;100.00
23261;BME280;11799;47.740;-3.390;2024-01-30T03:26:35;102834.75;;;8.52;100.00
23261;BME280;11799;47.740;-3.390;2024-01-30T03:29:00;102837.63;;;8.46;100.00
23261;BME280;11799;47.740;-3.390;2024-01-30T03:31:26;102843.03;;;8.41;100.00
23261;BME280;11799;47.740;-3.390;2024-01-30T03:33:52;102855.25;;;8.44;100.00
23261;BME280;11799;47.740;-3.390;2024-01-30T03:36:17;102856.22;;;8.41;100.00
23261;BME280;11799;47.740;-3.390;2024-01-30T03:38:43;102854.59;;;8.37;100.00
23261;BME280;11799;47.740;-3.390;2024-01-30T03:41:09;102855.56;;;8.35;100.00
23261;BME280;11799;47.740;-3.390;2024-01-30T03:43:35;102846.88;;;8.31;100.00
23261;BME280;11799;47.740;-3.390;2024-01-30T03:46:02;102851.41;;;8.27;100.00
23261;BME280;11799;47.740;-3.390;2024-01-30T03:48:28;102853.06;;;8.30;100.00
23261;BME280;11799;47.740;-3.390;2024-01-30T03:50:53;102861.94;;;8.27;100.00
23261;BME280;11799;47.740;-3.390;2024-01-30T03:53:19;102849.75;;;8.25;100.00
23261;BME280;11799;47.740;-3.390;2024-01-30T03:55:44;102857.63;;;8.25;100.00
23261;BME280;11799;47.740;-3.390;2024-01-30T03:58:10;102860.31;;;8.23;100.00
23261;BME280;11799;47.740;-3.390;2024-01-30T04:00:35;102860.38;;;8.22;100.00
23261;BME280;11799;47.740;-3.390;2024-01-30T04:03:01;102864.03;;;8.18;100.00
23261;BME280;11799;47.740;-3.390;2024-01-30T04:05:27;102864.94;;;8.17;100.00
23261;BME280;11799;47.740;-3.390;2024-01-30T04:07:52;102872.84;;;8.17;100.00
23261;BME280;11799;47.740;-3.390;2024-01-30T04:10:18;102875.53;;;8.15;100.00
23261;BME280;11799;47.740;-3.390;2024-01-30T04:12:43;102871.34;;;8.10;100.00
23261;BME280;11799;47.740;-3.390;2024-01-30T04:15:09;102874.97;;;8.07;100.00
23261;BME280;11799;47.740;-3.390;2024-01-30T04:17:34;102882.00;;;8.07;100.00
23261;BME280;11799;47.740;-3.390;2024-01-30T04:20:00;102879.47;;;8.04;100.00
23261;BME280;11799;47.740;-3.390;2024-01-30T04:22:25;102878.59;;;8.03;100.00
23261;BME280;11799;47.740;-3.390;2024-01-30T04:24:51;102881.44;;;7.97;100.00
23261;BME280;11799;47.740;-3.390;2024-01-30T04:27:17;102882.34;;;7.96;100.00
23261;BME280;11799;47.740;-3.390;2024-01-30T04:29:42;102876.13;;;7.99;100.00
23261;BME280;11799;47.740;-3.390;2024-01-30T04:32:09;102872.63;;;7.98;100.00
23261;BME280;11799;47.740;-3.390;2024-01-30T04:34:36;102881.56;;;7.94;100.00
23261;BME280;11799;47.740;-3.390;2024-01-30T04:37:02;102871.38;;;7.83;100.00
23261;BME280;11799;47.740;-3.390;2024-01-30T04:39:28;102886.06;;;7.90;100.00
23261;BME280;11799;47.740;-3.390;2024-01-30T04:41:54;102884.38;;;7.88;100.00
23261;BME280;11799;47.740;-3.390;2024-01-30T04:44:19;102885.25;;;7.88;100.00
23261;BME280;11799;47.740;-3.390;2024-01-30T04:46:45;102878.31;;;7.86;100.00
23261;BME280;11799;47.740;-3.390;2024-01-30T04:49:10;102889.69;;;7.86;100.00
23261;BME280;11799;47.740;-3.390;2024-01-30T04:51:36;102890.72;;;7.82;100.00
23261;BME280;11799;47.740;-3.390;2024-01-30T04:54:02;102900.38;;;7.82;100.00
23261;BME280;11799;47.740;-3.390;2024-01-30T04:56:27;102898.66;;;7.81;100.00
23261;BME280;11799;47.740;-3.390;2024-01-30T04:58:53;102910.09;;;7.80;100.00
23261;BME280;11799;47.740;-3.390;2024-01-30T05:01:18;102919.91;;;7.75;100.00
23261;BME280;11799;47.740;-3.390;2024-01-30T05:03:44;102911.25;;;7.71;100.00
23261;BME280;11799;47.740;-3.390;2024-01-30T05:06:09;102918.38;;;7.68;100.00
23261;BME280;11799;47.740;-3.390;2024-01-30T05:08:35;102922.81;;;7.66;100.00
23261;BME280;11799;47.740;-3.390;2024-01-30T05:11:05;102916.84;;;7.60;100.00
23261;BME280;11799;47.740;-3.390;2024-01-30T05:13:31;102923.00;;;7.59;100.00
23261;BME280;11799;47.740;-3.390;2024-01-30T05:15:57;102916.03;;;7.58;100.00
23261;BME280;11799;47.740;-3.390;2024-01-30T05:18:22;102921.25;;;7.60;100.00
23261;BME280;11799;47.740;-3.390;2024-01-30T05:20:50;102915.94;;;7.61;100.00
23261;BME280;11799;47.740;-3.390;2024-01-30T05:23:16;102908.16;;;7.58;100.00
23261;BME280;11799;47.740;-3.390;2024-01-30T05:25:41;102917.00;;;7.56;100.00
23261;BME280;11799;47.740;-3.390;2024-01-30T05:28:07;102922.19;;;7.57;100.00
23261;BME280;11799;47.740;-3.390;2024-01-30T05:30:33;102933.63;;;7.56;100.00
23261;BME280;11799;47.740;-3.390;2024-01-30T05:32:58;102939.88;;;7.52;100.00
23261;BME280;11799;47.740;-3.390;2024-01-30T05:35:24;102939.19;;;7.47;100.00
23261;BME280;11799;47.740;-3.390;2024-01-30T05:37:49;102941.06;;;7.44;100.00
23261;BME280;11799;47.740;-3.390;2024-01-30T05:40:15;102934.13;;;7.41;100.00
23261;BME280;11799;47.740;-3.390;2024-01-30T05:42:42;102946.38;;;7.42;100.00
23261;BME280;11799;47.740;-3.390;2024-01-30T05:45:08;102935.91;;;7.41;100.00
23261;BME280;11799;47.740;-3.390;2024-01-30T05:47:34;102943.78;;;7.41;100.00
23261;BME280;11799;47.740;-3.390;2024-01-30T05:50:00;102952.63;;;7.38;100.00
23261;BME280;11799;47.740;-3.390;2024-01-30T05:52:25;102948.22;;;7.39;100.00
23261;BME280;11799;47.740;-3.390;2024-01-30T05:54:51;102959.75;;;7.35;100.00
23261;BME280;11799;47.740;-3.390;2024-01-30T05:57:16;102963.31;;;7.32;100.00
23261;BME280;11799;47.740;-3.390;2024-01-30T05:59:43;102951.19;;;7.28;100.00
23261;BME280;11799;47.740;-3.390;2024-01-30T06:02:10;102967.84;;;7.27;100.00
23261;BME280;11799;47.740;-3.390;2024-01-30T06:04:36;102968.91;;;7.21;100.00
23261;BME280;11799;47.740;-3.390;2024-01-30T06:07:02;102969.84;;;7.19;100.00
23261;BME280;11799;47.740;-3.390;2024-01-30T06:09:28;102977.72;;;7.19;100.00
23261;BME280;11799;47.740;-3.390;2024-01-30T06:11:54;102978.53;;;7.21;100.00
23261;BME280;11799;47.740;-3.390;2024-01-30T06:14:20;102987.34;;;7.20;100.00
23261;BME280;11799;47.740;-3.390;2024-01-30T06:16:46;102986.38;;;7.22;100.00
23261;BME280;11799;47.740;-3.390;2024-01-30T06:19:11;102982.13;;;7.18;100.00
23261;BME280;11799;47.740;-3.390;2024-01-30T06:21:37;102982.16;;;7.17;100.00
23261;BME280;11799;47.740;-3.390;2024-01-30T06:24:04;102986.56;;;7.16;100.00
23261;BME280;11799;47.740;-3.390;2024-01-30T06:26:30;102985.75;;;7.14;100.00
23261;BME280;11799;47.740;-3.390;2024-01-30T06:28:55;102986.59;;;7.15;100.00
23261;BME280;11799;47.740;-3.390;2024-01-30T06:31:21;102991.03;;;7.13;100.00
23261;BME280;11799;47.740;-3.390;2024-01-30T06:33:47;102991.09;;;7.11;100.00
23261;BME280;11799;47.740;-3.390;2024-01-30T06:36:12;102995.56;;;7.08;100.00
23261;BME280;11799;47.740;-3.390;2024-01-30T06:38:39;102996.44;;;7.08;100.00
23261;BME280;11799;47.740;-3.390;2024-01-30T06:41:05;102996.47;;;7.07;100.00
23261;BME280;11799;47.740;-3.390;2024-01-30T06:43:30;102997.41;;;7.04;100.00
23261;BME280;11799;47.740;-3.390;2024-01-30T06:45:56;102994.88;;;7.01;100.00
23261;BME280;11799;47.740;-3.390;2024-01-30T06:48:21;102991.34;;;7.02;100.00
23261;BME280;11799;47.740;-3.390;2024-01-30T06:50:47;103000.13;;;7.01;100.00
23261;BME280;11799;47.740;-3.390;2024-01-30T06:53:13;102996.69;;;6.99;100.00
23261;BME280;11799;47.740;-3.390;2024-01-30T06:55:38;102997.56;;;7.00;100.00
23261;BME280;11799;47.740;-3.390;2024-01-30T06:58:04;103002.88;;;6.96;100.00
23261;BME280;11799;47.740;-3.390;2024-01-30T07:00:29;103017.72;;;6.99;100.00
23261;BME280;11799;47.740;-3.390;2024-01-30T07:02:55;103013.41;;;6.96;100.00
23261;BME280;11799;47.740;-3.390;2024-01-30T07:05:21;103007.28;;;6.96;100.00
23261;BME280;11799;47.740;-3.390;2024-01-30T07:07:47;103016.97;;;6.94;100.00
23261;BME280;11799;47.740;-3.390;2024-01-30T07:10:13;103010.84;;;6.93;100.00
23261;BME280;11799;47.740;-3.390;2024-01-30T07:12:38;103006.66;;;6.88;100.00
23261;BME280;11799;47.740;-3.390;2024-01-30T07:15:05;103006.66;;;6.88;100.00
23261;BME280;11799;47.740;-3.390;2024-01-30T07:17:34;103004.91;;;6.88;100.00
23261;BME280;11799;47.740;-3.390;2024-01-30T07:19:59;103003.22;;;6.86;100.00
23261;BME280;11799;47.740;-3.390;2024-01-30T07:22:25;103020.69;;;6.87;100.00
23261;BME280;11799;47.740;-3.390;2024-01-30T07:24:50;103014.53;;;6.88;100.00
23261;BME280;11799;47.740;-3.390;2024-01-30T07:27:17;103017.22;;;6.86;100.00
23261;BME280;11799;47.740;-3.390;2024-01-30T07:29:43;103030.38;;;6.85;100.00
23261;BME280;11799;47.740;-3.390;2024-01-30T07:32:09;103027.88;;;6.80;100.00
23261;BME280;11799;47.740;-3.390;2024-01-30T07:34:34;103033.06;;;6.83;100.00
23261;BME280;11799;47.740;-3.390;2024-01-30T07:37:01;103041.00;;;6.80;100.00
23261;BME280;11799;47.740;-3.390;2024-01-30T07:39:28;103041.09;;;6.77;100.00
23261;BME280;11799;47.740;-3.390;2024-01-30T07:41:53;103035.81;;;6.79;100.00
23261;BME280;11799;47.740;-3.390;2024-01-30T07:44:19;103046.38;;;6.76;100.00
23261;BME280;11799;47.740;-3.390;2024-01-30T07:46:44;103044.66;;;6.75;100.00
23261;BME280;11799;47.740;-3.390;2024-01-30T07:49:10;103052.56;;;6.73;100.00
23261;BME280;11799;47.740;-3.390;2024-01-30T07:51:35;103051.69;;;6.74;100.00
23261;BME280;11799;47.740;-3.390;2024-01-30T07:54:01;103064.91;;;6.70;100.00
23261;BME280;11799;47.740;-3.390;2024-01-30T07:56:26;103065.75;;;6.72;100.00
23261;BME280;11799;47.740;-3.390;2024-01-30T07:58:52;103059.81;;;6.63;100.00
23261;BME280;11799;47.740;-3.390;2024-01-30T08:01:18;103068.50;;;6.67;100.00
23261;BME280;11799;47.740;-3.390;2024-01-30T08:03:44;103071.16;;;6.66;100.00
23261;BME280;11799;47.740;-3.390;2024-01-30T08:06:09;103085.16;;;6.66;100.00
23261;BME280;11799;47.740;-3.390;2024-01-30T08:08:35;103086.88;;;6.67;100.00
23261;BME280;11799;47.740;-3.390;2024-01-30T08:11:01;103082.56;;;6.65;100.00
23261;BME280;11799;47.740;-3.390;2024-01-30T08:13:26;103094.78;;;6.66;100.00
23261;BME280;11799;47.740;-3.390;2024-01-30T08:15:52;103091.28;;;6.65;100.00
23261;BME280;11799;47.740;-3.390;2024-01-30T08:18:18;103094.78;;;6.66;100.00
23261;BME280;11799;47.740;-3.390;2024-01-30T08:20:43;103094.75;;;6.67;100.00
23261;BME280;11799;47.740;-3.390;2024-01-30T08:23:09;103095.59;;;6.68;100.00
23261;BME280;11799;47.740;-3.390;2024-01-30T08:25:35;103099.06;;;6.70;100.00
23261;BME280;11799;47.740;-3.390;2024-01-30T08:28:02;103104.28;;;6.71;100.00
23261;BME280;11799;47.740;-3.390;2024-01-30T08:30:27;103105.84;;;6.78;100.00
23261;BME280;11799;47.740;-3.390;2024-01-30T08:32:53;103105.75;;;6.81;100.00
23261;BME280;11799;47.740;-3.390;2024-01-30T08:35:18;103102.91;;;6.90;100.00
23261;BME280;11799;47.740;-3.390;2024-01-30T08:37:44;103111.28;;;7.03;100.00
23261;BME280;11799;47.740;-3.390;2024-01-30T08:40:10;103114.66;;;7.08;100.00
23261;BME280;11799;47.740;-3.390;2024-01-30T08:42:35;103111.00;;;7.14;100.00
23261;BME280;11799;47.740;-3.390;2024-01-30T08:45:01;103115.13;;;7.24;100.00
23261;BME280;11799;47.740;-3.390;2024-01-30T08:47:26;103115.84;;;7.29;100.00
23261;BME280;11799;47.740;-3.390;2024-01-30T08:49:52;103135.91;;;7.33;100.00
23261;BME280;11799;47.740;-3.390;2024-01-30T08:52:17;103133.09;;;7.39;100.00
23261;BME280;11799;47.740;-3.390;2024-01-30T08:54:43;103134.78;;;7.42;100.00
23261;BME280;11799;47.740;-3.390;2024-01-30T08:57:10;103141.94;;;7.37;100.00
23261;BME280;11799;47.740;-3.390;2024-01-30T08:59:35;103146.03;;;7.47;100.00
23261;BME280;11799;47.740;-3.390;2024-01-30T09:02:01;103143.84;;;7.61;100.00
23261;BME280;11799;47.740;-3.390;2024-01-30T09:04:26;103150.63;;;7.70;100.00
23261;BME280;11799;47.740;-3.390;2024-01-30T09:06:52;103148.91;;;7.69;100.00
23261;BME280;11799;47.740;-3.390;2024-01-30T09:09:17;103155.63;;;7.79;100.00
23261;BME280;11799;47.740;-3.390;2024-01-30T09:11:43;103153.81;;;7.81;100.00
23261;BME280;11799;47.740;-3.390;2024-01-30T09:14:09;103157.97;;;7.88;100.00
23261;BME280;11799;47.740;-3.390;2024-01-30T09:16:34;103154.63;;;7.83;100.00
23261;BME280;11799;47.740;-3.390;2024-01-30T09:19:00;103152.09;;;7.80;100.00
23261;BME280;11799;47.740;-3.390;2024-01-30T09:21:26;103158.84;;;7.88;100.00
23261;BME280;11799;47.740;-3.390;2024-01-30T09:23:54;103158.94;;;7.85;100.00
23261;BME280;11799;47.740;-3.390;2024-01-30T09:26:20;103160.84;;;7.80;100.00
23261;BME280;11799;47.740;-3.390;2024-01-30T09:28:45;103164.28;;;7.82;100.00
23261;BME280;11799;47.740;-3.390;2024-01-30T09:31:11;103170.19;;;7.90;100.00
23261;BME280;11799;47.740;-3.390;2024-01-30T09:33:38;103172.69;;;7.95;100.00
23261;BME280;11799;47.740;-3.390;2024-01-30T09:36:05;103176.00;;;8.02;100.00
23261;BME280;11799;47.740;-3.390;2024-01-30T09:38:31;103175.22;;;7.98;100.00
23261;BME280;11799;47.740;-3.390;2024-01-30T09:41:02;103180.44;;;8.00;100.00
23261;BME280;11799;47.740;-3.390;2024-01-30T09:43:33;103182.31;;;7.96;100.00
23261;BME280;11799;47.740;-3.390;2024-01-30T09:46:01;103186.22;;;8.11;100.00
23261;BME280;11799;47.740;-3.390;2024-01-30T09:48:29;103184.50;;;8.10;100.00
23261;BME280;11799;47.740;-3.390;2024-01-30T09:50:57;103188.84;;;8.11;100.00
23261;BME280;11799;47.740;-3.390;2024-01-30T09:53:23;103194.63;;;8.23;100.00
23261;BME280;11799;47.740;-3.390;2024-01-30T09:55:50;103200.28;;;8.67;100.00
23261;BME280;11799;47.740;-3.390;2024-01-30T09:58:16;103204.78;;;8.91;100.00
23261;BME280;11799;47.740;-3.390;2024-01-30T10:00:42;103204.16;;;8.83;100.00
23261;BME280;11799;47.740;-3.390;2024-01-30T10:03:08;103210.53;;;8.76;100.00
23261;BME280;11799;47.740;-3.390;2024-01-30T10:05:35;103213.22;;;8.75;100.00
23261;BME280;11799;47.740;-3.390;2024-01-30T10:08:06;103212.91;;;8.84;100.00
23261;BME280;11799;47.740;-3.390;2024-01-30T10:10:32;103227.44;;;8.97;100.00
23261;BME280;11799;47.740;-3.390;2024-01-30T10:12:57;103228.28;;;8.98;100.00
23261;BME280;11799;47.740;-3.390;2024-01-30T10:15:24;103228.13;;;9.02;100.00
23261;BME280;11799;47.740;-3.390;2024-01-30T10:17:51;103235.44;;;8.94;100.00
23261;BME280;11799;47.740;-3.390;2024-01-30T10:20:16;103242.38;;;8.97;100.00
23261;BME280;11799;47.740;-3.390;2024-01-30T10:22:44;103240.59;;;8.97;100.00
23261;BME280;11799;47.740;-3.390;2024-01-30T10:25:11;103242.47;;;8.93;100.00
23261;BME280;11799;47.740;-3.390;2024-01-30T10:27:36;103247.75;;;8.93;100.00
23261;BME280;11799;47.740;-3.390;2024-01-30T10:30:02;103245.16;;;8.92;100.00
23261;BME280;11799;47.740;-3.390;2024-01-30T10:32:29;103248.50;;;8.97;100.00
23261;BME280;11799;47.740;-3.390;2024-01-30T10:34:55;103242.22;;;9.01;100.00
23261;BME280;11799;47.740;-3.390;2024-01-30T10:37:21;103249.31;;;8.99;100.00
23261;BME280;11799;47.740;-3.390;2024-01-30T10:39:53;103251.75;;;9.05;100.00
23261;BME280;11799;47.740;-3.390;2024-01-30T10:42:18;103252.53;;;9.09;100.00
23261;BME280;11799;47.740;-3.390;2024-01-30T10:47:29;103258.56;;;9.12;100.00
23261;BME280;11799;47.740;-3.390;2024-01-30T10:49:56;103254.19;;;9.11;100.00
23261;BME280;11799;47.740;-3.390;2024-01-30T10:52:23;103259.41;;;9.13;100.00
23261;BME280;11799;47.740;-3.390;2024-01-30T10:54:54;103263.72;;;9.15;100.00
23261;BME280;11799;47.740;-3.390;2024-01-30T10:57:22;103261.81;;;9.20;100.00
23261;BME280;11799;47.740;-3.390;2024-01-30T10:59:48;103263.47;;;9.23;100.00
23261;BME280;11799;47.740;-3.390;2024-01-30T11:02:14;103261.63;;;9.25;100.00
23261;BME280;11799;47.740;-3.390;2024-01-30T11:04:41;103257.28;;;9.24;100.00
23261;BME280;11799;47.740;-3.390;2024-01-30T11:07:16;103256.25;;;9.28;100.00
23261;BME280;11799;47.740;-3.390;2024-01-30T11:12:16;103242.75;;;9.37;100.00
23261;BME280;11799;47.740;-3.390;2024-01-30T11:14:42;103241.84;;;9.38;100.00
23261;BME280;11799;47.740;-3.390;2024-01-30T11:17:09;103242.59;;;9.42;100.00
23261;BME280;11799;47.740;-3.390;2024-01-30T11:19:37;103246.03;;;9.44;100.00
23261;BME280;11799;47.740;-3.390;2024-01-30T11:22:02;103244.25;;;9.44;100.00
23261;BME280;11799;47.740;-3.390;2024-01-30T11:24:29;103245.88;;;9.48;100.00
23261;BME280;11799;47.740;-3.390;2024-01-30T11:26:56;103241.31;;;9.53;100.00
23261;BME280;11799;47.740;-3.390;2024-01-30T11:29:27;103242.88;;;9.59;100.00
23261;BME280;11799;47.740;-3.390;2024-01-30T11:31:54;103241.97;;;9.60;100.00
23261;BME280;11799;47.740;-3.390;2024-01-30T11:34:21;103240.94;;;9.64;100.00
23261;BME280;11799;47.740;-3.390;2024-01-30T11:36:56;103225.09;;;9.64;100.00
23261;BME280;11799;47.740;-3.390;2024-01-30T11:39:31;103226.78;;;9.67;100.00
23261;BME280;11799;47.740;-3.390;2024-01-30T11:41:57;103226.03;;;9.63;100.00
23261;BME280;11799;47.740;-3.390;2024-01-30T11:44:23;103220.59;;;9.68;100.00
23261;BME280;11799;47.740;-3.390;2024-01-30T11:46:50;103210.66;;;9.74;100.00
23261;BME280;11799;47.740;-3.390;2024-01-30T11:49:16;103214.13;;;9.76;100.00
23261;BME280;11799;47.740;-3.390;2024-01-30T11:51:44;103200.75;;;9.81;100.00
23261;BME280;11799;47.740;-3.390;2024-01-30T11:54:10;103202.34;;;9.85;100.00
23261;BME280;11799;47.740;-3.390;2024-01-30T11:56:37;103194.41;;;9.85;100.00
23261;BME280;11799;47.740;-3.390;2024-01-30T11:59:04;103183.84;;;9.85;100.00
23261;BME280;11799;47.740;-3.390;2024-01-30T12:01:31;103171.34;;;9.90;100.00
23261;BME280;11799;47.740;-3.390;2024-01-30T12:03:58;103160.91;;;9.87;100.00
23261;BME280;11799;47.740;-3.390;2024-01-30T12:06:23;103168.59;;;9.93;100.00
23261;BME280;11799;47.740;-3.390;2024-01-30T12:08:59;103169.28;;;9.98;100.00
23261;BME280;11799;47.740;-3.390;2024-01-30T12:11:26;103157.81;;;9.99;100.00
23261;BME280;11799;47.740;-3.390;2024-01-30T12:13:52;103136.75;;;9.98;100.00
23261;BME280;11799;47.740;-3.390;2024-01-30T12:16:18;103136.56;;;10.02;100.00
23261;BME280;11799;47.740;-3.390;2024-01-30T12:18:44;103138.22;;;10.05;100.00
23261;BME280;11799;47.740;-3.390;2024-01-30T12:21:09;103136.34;;;10.08;100.00
23261;BME280;11799;47.740;-3.390;2024-01-30T12:23:35;103131.13;;;10.07;100.00
23261;BME280;11799;47.740;-3.390;2024-01-30T12:26:02;103124.75;;;10.12;100.00
23261;BME280;11799;47.740;-3.390;2024-01-30T12:28:33;103118.22;;;10.22;100.00
23261;BME280;11799;47.740;-3.390;2024-01-30T12:31:03;103112.75;;;10.27;100.00
23261;BME280;11799;47.740;-3.390;2024-01-30T12:33:29;103103.09;;;10.26;100.00
23261;BME280;11799;47.740;-3.390;2024-01-30T12:35:55;103086.47;;;10.24;100.00
23261;BME280;11799;47.740;-3.390;2024-01-30T12:38:23;103089.97;;;10.24;100.00
23261;BME280;11799;47.740;-3.390;2024-01-30T12:40:49;103098.50;;;10.31;100.00